createdAt,value
2022-08-11T00:01:49.084Z,75.94
2022-08-11T00:11:48.532Z,75.03
2022-08-11T00:22:04.017Z,73.99
2022-08-11T00:31:49.632Z,73.65
2022-08-11T00:41:48.952Z,73.99
2022-08-11T00:51:56.724Z,75.34
2022-08-11T01:01:50.093Z,76.38
2022-08-11T01:11:55.980Z,75.74
2022-08-11T01:21:50.764Z,75.98
2022-08-11T01:31:50.003Z,77.12
2022-08-11T01:41:50.182Z,76.62
2022-08-11T01:51:50.456Z,79.79
2022-08-11T02:01:50.461Z,82.14
2022-08-11T02:11:51.103Z,78.55
2022-08-11T02:21:50.892Z,77.60
2022-08-11T02:32:15.394Z,78.00
2022-08-11T02:41:52.351Z,77.80
2022-08-11T02:51:51.511Z,78.48
2022-08-11T03:01:51.727Z,78.88
2022-08-11T03:11:51.593Z,79.93
2022-08-11T03:22:02.325Z,80.44
2022-08-11T03:31:53.899Z,80.24
2022-08-11T03:42:03.968Z,82.44
2022-08-11T03:51:53.289Z,83.31
2022-08-11T04:01:53.691Z,83.11
2022-08-11T04:11:52.796Z,81.99
2022-08-11T04:21:53.225Z,81.18
2022-08-11T04:31:53.259Z,81.35
2022-08-11T04:41:53.694Z,80.94
2022-08-11T04:51:53.734Z,81.55
2022-08-11T05:01:54.476Z,80.54
2022-08-11T05:11:57.987Z,81.29
2022-08-11T05:21:55.264Z,80.74
2022-08-11T05:31:55.698Z,80.57
2022-08-11T05:41:54.537Z,79.11
2022-08-11T05:51:57.236Z,76.42
2022-08-11T06:01:55.983Z,74.83
2022-08-11T06:11:57.145Z,73.55
2022-08-11T06:21:55.174Z,73.55
2022-08-11T06:31:56.644Z,74.15
2022-08-11T06:41:55.496Z,73.24
2022-08-11T06:51:55.763Z,73.00
2022-08-11T07:01:56.029Z,69.22
2022-08-11T07:11:56.220Z,69.22
2022-08-11T07:22:01.795Z,68.99
2022-08-11T07:31:57.355Z,67.72
2022-08-11T07:41:56.630Z,65.95
2022-08-11T07:51:56.676Z,65.12
2022-08-11T08:01:57.035Z,64.29
2022-08-11T08:11:57.159Z,63.86
2022-08-11T08:22:07.088Z,62.60
2022-08-11T08:31:58.531Z,61.47
2022-08-11T08:41:57.555Z,61.61
2022-08-11T08:52:25.192Z,60.19
2022-08-11T09:01:59.060Z,59.94
2022-08-11T09:11:58.107Z,60.24
2022-08-11T09:21:58.386Z,58.95
2022-08-11T09:31:58.413Z,58.43
2022-08-11T09:42:03.139Z,61.41
2022-08-11T09:52:03.375Z,57.98
2022-08-11T10:02:00.053Z,58.37
2022-08-11T10:11:59.366Z,56.85
2022-08-11T10:21:59.437Z,55.11
2022-08-11T10:32:04.441Z,54.17
2022-08-11T10:42:07.441Z,51.60
2022-08-11T10:52:00.937Z,52.36
2022-08-11T11:02:00.231Z,51.30
2022-08-11T11:12:00.297Z,52.69
2022-08-11T11:22:00.576Z,50.56
2022-08-11T11:32:00.619Z,49.55
2022-08-11T11:42:00.927Z,49.65
2022-08-11T11:52:00.960Z,50.02
2022-08-11T12:02:01.332Z,50.66
2022-08-11T12:12:02.424Z,48.74
2022-08-11T12:22:01.806Z,48.82
2022-08-11T12:32:01.843Z,47.61
2022-08-11T12:42:02.142Z,48.82
2022-08-11T12:52:14.685Z,46.90
2022-08-11T13:02:03.132Z,48.10
2022-08-11T13:12:02.504Z,47.49
2022-08-11T13:22:02.536Z,47.07
2022-08-11T13:32:02.857Z,47.56
2022-08-11T13:42:02.899Z,48.91
2022-08-11T13:52:03.213Z,45.53
2022-08-11T14:02:21.188Z,45.75
2022-08-11T14:12:20.234Z,45.65
2022-08-11T14:22:07.669Z,43.79
2022-08-11T14:32:04.526Z,45.36
2022-08-11T14:42:10.512Z,44.37
2022-08-11T14:52:04.952Z,45.55
2022-08-11T15:02:04.226Z,45.95
2022-08-11T15:12:04.489Z,43.96
2022-08-11T15:22:04.778Z,42.68
2022-08-11T15:32:04.841Z,42.43
2022-08-11T15:42:05.132Z,42.04
2022-08-11T15:52:05.168Z,41.84
2022-08-11T16:02:05.524Z,44.24
2022-08-11T16:12:05.611Z,45.79
2022-08-11T16:22:05.919Z,44.42
2022-08-11T16:32:05.973Z,45.74
2022-08-11T16:42:06.316Z,47.38
2022-08-11T16:52:06.377Z,48.86
2022-08-11T17:02:07.733Z,48.98
2022-08-11T17:12:06.756Z,49.99
2022-08-11T17:22:07.078Z,50.24
2022-08-11T17:32:07.130Z,50.36
2022-08-11T17:42:09.378Z,51.15
2022-08-11T17:52:07.615Z,52.17
2022-08-11T18:02:07.923Z,53.67
2022-08-11T18:12:11.395Z,54.60
2022-08-11T18:22:15.317Z,54.02
2022-08-11T18:32:09.187Z,54.94
2022-08-11T18:42:08.481Z,56.38
2022-08-11T18:52:08.517Z,56.71
2022-08-11T19:02:08.851Z,57.51
2022-08-11T19:12:08.885Z,58.78
2022-08-11T19:22:09.183Z,58.69
2022-08-11T19:32:09.224Z,61.07
2022-08-11T19:42:09.534Z,60.66
2022-08-11T19:52:09.630Z,62.61
2022-08-11T20:02:13.275Z,61.52
2022-08-11T20:12:09.919Z,63.11
2022-08-11T20:22:12.297Z,64.07
2022-08-11T20:32:10.464Z,65.20
2022-08-11T20:42:10.789Z,66.53
2022-08-11T20:52:11.079Z,67.06
2022-08-11T21:02:11.057Z,67.99
2022-08-11T21:12:11.105Z,67.66
2022-08-11T21:22:11.378Z,67.59
2022-08-11T21:32:11.411Z,68.23
2022-08-11T21:42:11.725Z,69.26
2022-08-11T21:52:11.753Z,69.89
2022-08-11T22:02:12.936Z,68.89
2022-08-11T22:12:34.431Z,69.73
2022-08-11T22:22:13.213Z,70.96
2022-08-11T22:32:12.475Z,70.56
2022-08-11T22:42:12.795Z,71.59
2022-08-11T22:52:12.877Z,71.20
2022-08-11T23:02:13.020Z,70.26
2022-08-11T23:12:13.045Z,70.23
2022-08-11T23:22:13.168Z,68.22
2022-08-11T23:32:13.298Z,68.29
2022-08-11T23:42:13.735Z,67.79
2022-08-11T23:52:13.938Z,67.92
